Time;durP1;ratioP1;P1;durP2;ratioP2;P2;SDS_P1;SDS_P2;PMS_P1;PMS_P2;Temp;Humidity;BMP_temperature;BMP_pressure;BME280_temperature;BME280_humidity;BME280_pressure;Samples;Min_cycle;Max_cycle;Signal;HPM_P1;HPM_P2
2023/09/22 00:00:50;;;;;;;2.40;0.90;;;;;;;17.23;100.00;96632.19;1223884;75;3088404;-81
2023/09/22 00:03:23;;;;;;;2.00;1.20;;;;;;;17.11;100.00;96622.72;1225793;75;2918060;-79
2023/09/22 00:05:56;;;;;;;1.30;0.90;;;;;;;17.29;100.00;96627.22;1137208;75;9926180;-78
2023/09/22 00:08:28;;;;;;;0.90;0.60;;;;;;;17.33;100.00;96635.16;1201300;75;3915816;-81
2023/09/22 00:11:01;;;;;;;2.55;1.10;;;;;;;17.36;100.00;96634.81;1214959;75;3836820;-78
2023/09/22 00:13:34;;;;;;;1.90;0.80;;;;;;;17.42;100.00;96632.63;1199114;75;4010298;-80
2023/09/22 00:16:10;;;;;;;0.95;0.85;;;;;;;17.38;100.00;96637.78;1211553;75;3919639;-80
2023/09/22 00:18:42;;;;;;;1.40;0.70;;;;;;;17.42;100.00;96621.56;1202508;75;4842530;-81
2023/09/22 00:21:16;;;;;;;1.90;0.80;;;;;;;17.00;100.00;96621.75;1175979;75;4989989;-82
2023/09/22 00:23:49;;;;;;;3.80;1.90;;;;;;;16.74;100.00;96630.19;1226173;75;2939997;-80
2023/09/22 00:26:21;;;;;;;4.20;1.60;;;;;;;17.04;100.00;96633.19;1221048;75;3104386;-79
2023/09/22 00:28:54;;;;;;;2.60;1.60;;;;;;;16.97;100.00;96630.38;1142024;75;8770173;-77
2023/09/22 00:31:29;;;;;;;2.05;1.40;;;;;;;17.08;100.00;96640.38;1211011;75;3839932;-80
2023/09/22 00:34:02;;;;;;;2.50;1.40;;;;;;;17.00;100.00;96637.56;1156690;75;8613325;-80
2023/09/22 00:36:36;;;;;;;1.50;1.20;;;;;;;17.24;100.00;96626.09;1138508;75;8969456;-79
2023/09/22 00:39:08;;;;;;;1.75;1.05;;;;;;;17.25;100.00;96629.59;1226730;75;2918609;-81
2023/09/22 00:41:41;;;;;;;1.10;0.95;;;;;;;17.29;100.00;96626.47;1202108;75;3842375;-81
2023/09/22 00:44:15;;;;;;;1.45;0.80;;;;;;;17.21;100.00;96627.19;1223323;75;2956355;-77
2023/09/22 00:46:50;;;;;;;2.10;0.90;;;;;;;17.31;100.00;96630.16;1212222;75;4050523;-79
2023/09/22 00:49:24;;;;;;;2.15;1.05;;;;;;;16.89;100.00;96627.56;1211574;75;4071646;-81
2023/09/22 00:51:57;;;;;;;1.30;0.90;;;;;;;17.25;100.00;96638.63;1223258;75;2992403;-79
2023/09/22 00:54:29;;;;;;;1.90;1.30;;;;;;;17.03;100.00;96631.72;1227177;75;2917557;-78
2023/09/22 00:57:03;;;;;;;2.10;1.10;;;;;;;17.29;100.00;96620.94;1187443;75;5934437;-82
2023/09/22 00:59:40;;;;;;;0.90;0.80;;;;;;;17.24;100.00;96626.09;1200433;75;5909337;-78
2023/09/22 01:02:15;;;;;;;0.85;0.70;;;;;;;17.35;100.00;96629.84;1157452;75;8626442;-82
2023/09/22 01:04:48;;;;;;;0.80;0.80;;;;;;;17.29;100.00;96632.75;1211689;75;3879859;-80
2023/09/22 01:07:21;;;;;;;1.50;1.00;;;;;;;16.99;100.00;96639.59;1188572;75;4818525;-79
2023/09/22 01:09:54;;;;;;;1.60;0.90;;;;;;;17.26;100.00;96642.13;1223573;75;3002640;-80
2023/09/22 01:12:26;;;;;;;1.20;0.80;;;;;;;17.31;100.00;96637.75;1224879;75;2931278;-80
2023/09/22 01:15:00;;;;;;;2.45;1.35;;;;;;;16.98;100.00;96634.59;1200129;75;4901706;-81
2023/09/22 01:17:35;;;;;;;2.15;1.10;;;;;;;16.84;100.00;96631.22;1226866;75;2921411;-80
2023/09/22 01:20:10;;;;;;;1.30;1.10;;;;;;;17.20;100.00;96631.25;1084117;75;10551090;-78
2023/09/22 01:22:46;;;;;;;1.70;1.00;;;;;;;17.24;100.00;96633.66;1128692;75;9847445;-80
2023/09/22 01:25:21;;;;;;;0.60;0.60;;;;;;;17.15;100.00;96632.16;1173678;75;5089737;-83
2023/09/22 01:27:54;;;;;;;1.05;0.80;;;;;;;17.23;100.00;96623.88;1126534;75;8770331;-80
2023/09/22 01:30:27;;;;;;;2.60;1.80;;;;;;;16.75;100.00;96626.91;1220357;75;3037734;-79
2023/09/22 01:33:02;;;;;;;3.30;1.50;;;;;;;16.94;100.00;96615.63;1118349;75;9689690;-83
2023/09/22 01:35:36;;;;;;;3.10;1.40;;;;;;;17.02;100.00;96619.16;1128310;75;8871800;-78
2023/09/22 01:38:18;;;;;;;1.35;1.25;;;;;;;17.14;100.00;96618.84;1226891;75;2913604;-80
2023/09/22 01:40:50;;;;;;;1.30;1.10;;;;;;;17.11;100.00;96620.69;1115280;75;8683674;-81
2023/09/22 01:43:23;;;;;;;1.20;0.90;;;;;;;17.10;100.00;96610.91;1226866;75;2914910;-79
2023/09/22 01:45:58;;;;;;;1.45;1.10;;;;;;;17.21;100.00;96615.38;1200745;75;3917151;-81
2023/09/22 01:48:31;;;;;;;1.50;0.80;;;;;;;17.20;100.00;96606.34;1225931;75;2949076;-80
2023/09/22 01:51:05;;;;;;;0.80;0.70;;;;;;;17.19;100.00;96596.56;1223725;75;3029965;-78
2023/09/22 01:53:40;;;;;;;1.15;0.70;;;;;;;17.23;100.00;96585.88;1102044;75;8724111;-80
2023/09/22 01:56:13;;;;;;;1.00;0.50;;;;;;;16.99;100.00;96587.06;1223437;75;2973870;-81
2023/09/22 01:58:46;;;;;;;1.05;0.60;;;;;;;17.13;100.00;96589.72;1224365;75;2930674;-81
2023/09/22 02:01:19;;;;;;;0.55;0.50;;;;;;;17.16;100.00;96583.84;1185914;75;5071744;-80
2023/09/22 02:03:52;;;;;;;0.60;0.60;;;;;;;17.04;100.00;96572.34;1187173;75;4852913;-80
2023/09/22 02:06:24;;;;;;;0.90;0.70;;;;;;;17.21;100.00;96582.19;1224096;75;2989127;-81
2023/09/22 02:09:00;;;;;;;0.70;0.60;;;;;;;17.17;100.00;96579.03;1115745;75;9825537;-81
2023/09/22 02:11:32;;;;;;;0.60;0.60;;;;;;;17.22;100.00;96578.88;1212017;75;4003639;-80
2023/09/22 02:14:05;;;;;;;1.05;0.70;;;;;;;17.25;100.00;96580.56;1226587;75;2924233;-80
2023/09/22 02:16:40;;;;;;;1.05;0.60;;;;;;;17.32;100.00;96586.66;1222670;75;3005609;-78
2023/09/22 02:19:13;;;;;;;0.80;0.60;;;;;;;17.27;100.00;96590.31;1223522;75;3102756;-79
2023/09/22 02:21:45;;;;;;;1.95;0.75;;;;;;;16.99;100.00;96581.53;1208962;75;3806222;-80
2023/09/22 02:24:21;;;;;;;3.25;1.90;;;;;;;16.85;100.00;96579.44;1210112;75;3867143;-79
2023/09/22 02:26:53;;;;;;;3.15;1.55;;;;;;;16.92;100.00;96584.28;1200869;75;4916156;-80
2023/09/22 02:29:26;;;;;;;1.35;1.05;;;;;;;17.19;100.00;96582.00;1225168;75;2946696;-81
2023/09/22 02:31:58;;;;;;;2.15;1.30;;;;;;;17.14;100.00;96580.88;1211625;75;4031702;-79
2023/09/22 02:34:33;;;;;;;2.65;1.20;;;;;;;17.03;100.00;96592.25;1197046;75;4094743;-80
2023/09/22 02:37:06;;;;;;;2.30;1.30;;;;;;;17.19;100.00;96590.28;1206363;75;4082417;-78
2023/09/22 02:39:41;;;;;;;2.05;1.10;;;;;;;17.18;100.00;96580.53;1221539;75;3065737;-81
2023/09/22 02:42:14;;;;;;;2.90;1.70;;;;;;;17.18;100.00;96581.25;1221629;75;3096057;-79
2023/09/22 02:44:47;;;;;;;2.35;1.20;;;;;;;17.29;100.00;96582.94;1211668;75;4047700;-82
2023/09/22 02:47:19;;;;;;;2.00;1.00;;;;;;;17.33;100.00;96583.34;1226812;75;2919910;-81
2023/09/22 02:49:52;;;;;;;2.05;1.30;;;;;;;17.08;100.00;96585.06;1224637;75;2989011;-81
2023/09/22 02:52:25;;;;;;;2.45;1.15;;;;;;;17.16;100.00;96583.09;1199858;75;4810458;-78
2023/09/22 02:55:03;;;;;;;3.40;1.35;;;;;;;17.00;100.00;96593.34;1208354;68;4086733;-78
2023/09/22 02:57:35;;;;;;;1.00;0.90;;;;;;;17.11;100.00;96598.56;1199257;75;5024644;-79
2023/09/22 03:00:14;;;;;;;1.60;1.10;;;;;;;16.83;100.00;96589.00;1223281;75;2997578;-79
2023/09/22 03:02:47;;;;;;;2.05;1.10;;;;;;;16.75;100.00;96581.94;1222549;75;3048527;-83
2023/09/22 03:05:20;;;;;;;2.45;1.10;;;;;;;16.92;100.00;96581.50;1226422;75;2920344;-79
2023/09/22 03:07:55;;;;;;;1.75;1.10;;;;;;;16.55;100.00;96592.50;1221362;75;3115985;-79
2023/09/22 03:10:30;;;;;;;1.30;1.10;;;;;;;16.95;100.00;96594.22;1222351;75;3043993;-80
2023/09/22 03:13:03;;;;;;;1.20;1.10;;;;;;;17.11;100.00;96595.06;1221077;75;3112801;-80
2023/09/22 03:15:37;;;;;;;3.40;1.50;;;;;;;16.66;100.00;96601.78;1209293;75;4040670;-78
2023/09/22 03:18:10;;;;;;;1.65;1.20;;;;;;;16.76;100.00;96597.22;1225129;75;2924208;-80
2023/09/22 03:20:43;;;;;;;2.50;1.50;;;;;;;16.61;100.00;96595.84;1211559;75;3898883;-78
2023/09/22 03:23:16;;;;;;;3.20;1.30;;;;;;;17.04;100.00;96596.50;1222877;75;2958564;-81
2023/09/22 03:25:52;;;;;;;1.30;1.00;;;;;;;16.73;100.00;96590.03;1225646;75;2922068;-81
2023/09/22 03:28:24;;;;;;;3.60;1.60;;;;;;;16.45;100.00;96594.28;1155365;83;8610631;-81
2023/09/22 03:30:57;;;;;;;4.00;1.95;;;;;;;16.50;100.00;96592.63;1223621;75;2935129;-82
2023/09/22 03:33:30;;;;;;;2.25;1.15;;;;;;;16.73;100.00;96598.31;1210699;75;4077823;-81
2023/09/22 03:36:02;;;;;;;4.15;1.55;;;;;;;16.56;100.00;96599.50;1213722;75;3861130;-79
2023/09/22 03:38:35;;;;;;;2.05;1.40;;;;;;;16.65;100.00;96601.03;1223411;75;3008155;-82
2023/09/22 03:41:14;;;;;;;1.85;1.40;;;;;;;16.89;100.00;96591.63;1213690;75;3837772;-79
2023/09/22 03:43:46;;;;;;;1.10;1.00;;;;;;;16.91;100.00;96613.19;1225775;75;2928731;-80
2023/09/22 03:46:19;;;;;;;1.40;1.00;;;;;;;16.74;100.00;96617.13;1129921;75;10731116;-80
2023/09/22 03:48:52;;;;;;;1.60;1.10;;;;;;;16.81;100.00;96624.75;1195710;75;4046142;-80
2023/09/22 03:51:24;;;;;;;1.10;0.80;;;;;;;16.85;100.00;96621.63;1145521;75;9548678;-79
2023/09/22 03:53:57;;;;;;;2.10;1.50;;;;;;;16.33;100.00;96615.16;1225220;75;2926424;-80
2023/09/22 03:56:33;;;;;;;2.72;1.60;;;;;;;16.50;100.00;96603.69;1160318;75;5025539;-77
2023/09/22 03:59:06;;;;;;;1.50;1.00;;;;;;;16.72;100.00;96600.34;1186202;75;4006517;-81
2023/09/22 04:01:39;;;;;;;2.50;1.45;;;;;;;16.35;100.00;96602.28;1226278;75;2920166;-79
2023/09/22 04:04:12;;;;;;;2.40;1.30;;;;;;;16.55;100.00;96598.03;1224652;75;2924286;-80
2023/09/22 04:06:45;;;;;;;1.10;0.90;;;;;;;16.63;100.00;96592.56;1212204;75;3922277;-81
2023/09/22 04:09:18;;;;;;;1.75;1.10;;;;;;;16.69;100.00;96611.75;1140098;75;9061119;-79
2023/09/22 04:11:53;;;;;;;1.45;0.80;;;;;;;16.63;100.00;96614.66;1186452;75;5009031;-79
2023/09/22 04:14:26;;;;;;;2.25;1.40;;;;;;;16.49;100.00;96608.47;1172097;75;4920102;-79
2023/09/22 04:16:58;;;;;;;1.65;1.25;;;;;;;16.53;100.00;96610.91;1142593;75;9657891;-78
2023/09/22 04:19:33;;;;;;;4.80;2.00;;;;;;;15.96;100.00;96615.03;1211057;75;3985940;-80
2023/09/22 04:22:07;;;;;;;3.65;2.00;;;;;;;16.15;100.00;96612.06;1225232;75;2922225;-81
2023/09/22 04:24:47;;;;;;;2.90;1.40;;;;;;;16.13;100.00;96614.63;1186515;75;4809707;-75
2023/09/22 04:27:22;;;;;;;3.55;1.77;;;;;;;15.98;100.00;96609.72;1198635;75;5018037;-76
2023/09/22 04:29:56;;;;;;;2.25;1.45;;;;;;;16.09;100.00;96616.25;1150432;75;8984877;-78
2023/09/22 04:32:33;;;;;;;1.45;1.05;;;;;;;16.32;100.00;96619.94;1198760;75;3990407;-80
2023/09/22 04:35:09;;;;;;;2.75;1.10;;;;;;;16.32;100.00;96631.00;1212174;75;3901436;-78
2023/09/22 04:37:41;;;;;;;1.15;1.00;;;;;;;16.40;100.00;96625.53;1221433;75;3013693;-81
2023/09/22 04:40:23;;;;;;;1.65;0.75;;;;;;;16.29;100.00;96636.88;1211302;75;4047292;-77
2023/09/22 04:42:58;;;;;;;1.45;1.00;;;;;;;16.37;100.00;96640.44;1151249;75;8861959;-77
2023/09/22 04:45:31;;;;;;;0.90;0.80;;;;;;;16.03;100.00;96635.72;1222181;75;3029182;-78
2023/09/22 04:48:04;;;;;;;4.35;1.75;;;;;;;15.67;100.00;96641.75;1200211;75;4957071;-77
2023/09/22 04:50:37;;;;;;;4.05;2.45;;;;;;;15.90;100.00;96635.78;1223314;75;3003204;-75
2023/09/22 04:53:10;;;;;;;2.45;2.15;;;;;;;15.99;100.00;96638.06;1197893;75;4984817;-80
2023/09/22 04:55:43;;;;;;;2.25;1.50;;;;;;;16.22;100.00;96634.78;1199225;75;4909498;-78
2023/09/22 04:58:18;;;;;;;3.25;2.30;;;;;;;16.27;100.00;96636.66;1211720;75;4019880;-79
2023/09/22 05:00:58;;;;;;;2.65;1.90;;;;;;;16.33;100.00;96646.31;1211983;75;3945858;-79
2023/09/22 05:03:31;;;;;;;2.08;1.70;;;;;;;16.20;100.00;96649.13;1171983;75;4944259;-76
2023/09/22 05:06:09;;;;;;;2.55;1.65;;;;;;;16.25;100.00;96653.75;1222994;75;3055328;-79
2023/09/22 05:08:42;;;;;;;2.90;1.90;;;;;;;16.18;100.00;96646.88;1208213;75;4131421;-78
2023/09/22 05:11:14;;;;;;;2.55;1.50;;;;;;;16.18;100.00;96644.13;1198143;75;4029829;-80
2023/09/22 05:13:50;;;;;;;1.83;1.40;;;;;;;16.35;100.00;96642.97;1200253;75;4944097;-76
2023/09/22 05:16:23;;;;;;;1.65;1.30;;;;;;;16.46;100.00;96637.19;1144827;75;8486225;-79
2023/09/22 05:18:56;;;;;;;3.20;1.00;;;;;;;16.42;100.00;96650.59;1208930;75;4015386;-80
2023/09/22 05:21:28;;;;;;;2.35;1.65;;;;;;;15.93;100.00;96662.31;1209200;75;4107815;-81
2023/09/22 05:24:01;;;;;;;3.00;1.65;;;;;;;15.92;100.00;96666.31;1208222;75;4093378;-78
2023/09/22 05:26:34;;;;;;;3.00;1.90;;;;;;;16.23;100.00;96666.63;1213586;75;3882443;-80
2023/09/22 05:29:10;;;;;;;6.30;4.60;;;;;;;16.41;100.00;96657.41;1212626;75;3816599;-76
2023/09/22 05:31:43;;;;;;;4.65;3.50;;;;;;;16.43;100.00;96660.38;1223657;75;2986992;-78
2023/09/22 05:34:15;;;;;;;3.60;2.50;;;;;;;16.55;100.00;96660.84;1142604;75;9621953;-80
2023/09/22 05:36:49;;;;;;;3.75;2.20;;;;;;;16.63;100.00;96661.63;1141727;75;8705602;-77
2023/09/22 05:39:21;;;;;;;2.85;1.80;;;;;;;16.83;100.00;96663.63;1212357;75;4008272;-81
2023/09/22 05:41:54;;;;;;;2.45;1.60;;;;;;;16.75;100.00;96667.63;1199972;75;4906878;-77
2023/09/22 05:44:29;;;;;;;2.40;1.60;;;;;;;16.92;100.00;96667.22;1213891;75;3811965;-78
2023/09/22 05:47:02;;;;;;;2.60;1.10;;;;;;;16.94;100.00;96661.88;1118383;75;9630277;-77
2023/09/22 05:49:34;;;;;;;1.55;1.20;;;;;;;17.01;100.00;96669.47;1176118;75;4888770;-78
2023/09/22 05:52:07;;;;;;;1.75;1.35;;;;;;;17.20;100.00;96664.44;1184273;75;6001445;-76
2023/09/22 05:54:41;;;;;;;2.10;1.30;;;;;;;17.18;100.00;96664.22;1225520;75;2916796;-77
2023/09/22 05:57:13;;;;;;;6.30;2.55;;;;;;;16.93;100.00;96660.38;1148484;75;5020314;-78
2023/09/22 05:59:49;;;;;;;4.45;2.70;;;;;;;17.23;100.00;96662.59;1223841;75;2993682;-79
2023/09/22 06:02:22;;;;;;;7.00;3.00;;;;;;;17.44;100.00;96681.91;1213284;75;3857199;-79
2023/09/22 06:04:58;;;;;;;3.35;2.35;;;;;;;17.36;100.00;96686.63;1222707;75;2974158;-79
2023/09/22 06:07:31;;;;;;;4.15;1.90;;;;;;;17.60;100.00;96702.06;1191897;75;5022354;-79
2023/09/22 06:10:05;;;;;;;2.55;2.00;;;;;;;17.47;100.00;96697.41;1221621;75;3056018;-78
2023/09/22 06:12:38;;;;;;;2.55;1.70;;;;;;;17.55;100.00;96703.69;1196032;75;4922811;-80
2023/09/22 06:15:15;;;;;;;2.55;1.30;;;;;;;18.05;100.00;96703.53;1193272;75;4038271;-78
2023/09/22 06:17:49;;;;;;;1.40;1.10;;;;;;;18.05;100.00;96712.59;1188750;75;3884085;-76
2023/09/22 06:20:22;;;;;;;1.70;1.30;;;;;;;18.29;100.00;96713.38;1209657;75;3916375;-77
2023/09/22 06:22:55;;;;;;;4.45;2.40;;;;;;;22.41;88.97;96712.03;1140193;75;8900725;-78
2023/09/22 06:25:31;;;;;;;4.65;2.30;;;;;;;22.03;85.85;96719.59;1224449;75;2932986;-81
2023/09/22 06:28:05;;;;;;;2.30;1.90;;;;;;;21.35;93.36;96713.47;1223312;75;2928622;-76
2023/09/22 06:30:41;;;;;;;2.10;1.55;;;;;;;24.53;72.49;96714.88;1226061;75;2930962;-78
2023/09/22 06:33:14;;;;;;;2.25;1.50;;;;;;;28.41;58.07;96711.88;1211707;75;3805888;-80
2023/09/22 06:35:46;;;;;;;2.15;1.30;;;;;;;31.11;51.48;96712.91;1155870;75;8636424;-79
2023/09/22 06:38:19;;;;;;;1.30;0.80;;;;;;;32.21;46.97;96713.88;1152507;75;8763859;-77
2023/09/22 06:40:55;;;;;;;2.45;1.20;;;;;;;33.73;44.39;96715.03;1153093;75;8632484;-78
2023/09/22 06:43:29;;;;;;;2.65;1.55;;;;;;;34.53;42.10;96719.59;1211690;75;3951632;-80
2023/09/22 06:46:09;;;;;;;4.95;1.80;;;;;;;32.62;44.96;96723.91;1172714;75;6021851;-76
2023/09/22 06:48:41;;;;;;;3.60;1.70;;;;;;;28.29;52.00;96728.84;1196238;75;3979699;-81
2023/09/22 06:51:19;;;;;;;2.75;1.35;;;;;;;28.16;54.66;96730.25;1199398;75;3870889;-78
2023/09/22 06:53:52;;;;;;;4.30;3.10;;;;;;;26.82;57.42;96731.66;1223567;75;3006642;-75
2023/09/22 06:56:24;;;;;;;4.25;2.45;;;;;;;25.29;61.53;96734.72;1199431;75;4954943;-77
2023/09/22 06:58:57;;;;;;;3.85;2.05;;;;;;;24.21;68.23;96739.97;1198972;75;4907293;-78
2023/09/22 07:01:32;;;;;;;2.50;1.50;;;;;;;24.48;67.98;96741.84;1197252;75;4016135;-77
2023/09/22 07:04:08;;;;;;;1.60;1.15;;;;;;;24.85;66.48;96756.28;1210470;75;3805447;-80
2023/09/22 07:06:42;;;;;;;1.20;0.80;;;;;;;25.18;65.50;96747.28;1206878;75;3922760;-78
2023/09/22 07:09:14;;;;;;;2.25;1.40;;;;;;;23.83;70.96;96735.16;1176075;83;5829129;-80
2023/09/22 07:11:47;;;;;;;1.95;1.15;;;;;;;24.49;69.62;96734.91;1221475;75;2940261;-76
2023/09/22 07:14:20;;;;;;;4.70;1.30;;;;;;;24.14;72.93;96729.69;1210340;75;3911357;-79
2023/09/22 07:16:56;;;;;;;5.30;2.45;;;;;;;24.17;76.19;96734.09;1183816;79;5034368;-77
2023/09/22 07:19:30;;;;;;;3.80;2.10;;;;;;;24.23;74.39;96733.78;1206424;75;3935943;-79
2023/09/22 07:22:02;;;;;;;2.60;1.55;;;;;;;24.54;72.25;96730.34;1221569;75;3092527;-79
2023/09/22 07:24:35;;;;;;;2.35;1.70;;;;;;;23.88;73.77;96730.59;1135551;75;9061703;-78
2023/09/22 07:27:09;;;;;;;4.70;1.85;;;;;;;23.97;73.74;96733.38;1222885;75;2981270;-80
2023/09/22 07:29:42;;;;;;;1.60;1.10;;;;;;;24.36;69.71;96735.38;1221897;75;2954919;-78
2023/09/22 07:32:19;;;;;;;1.20;0.95;;;;;;;24.45;69.08;96734.59;1209378;75;4051148;-77
2023/09/22 07:34:53;;;;;;;2.20;1.00;;;;;;;24.36;68.95;96743.75;1220691;75;3227684;-79
2023/09/22 07:37:25;;;;;;;1.80;1.25;;;;;;;23.98;68.77;96736.91;1208622;75;3856334;-80
2023/09/22 07:39:58;;;;;;;4.65;1.70;;;;;;;23.49;71.31;96745.28;1210643;75;3939803;-80
2023/09/22 07:42:31;;;;;;;3.20;1.35;;;;;;;23.86;72.49;96741.63;1196638;75;4829725;-80
2023/09/22 07:45:04;;;;;;;3.20;1.60;;;;;;;23.72;71.78;96736.47;1196193;75;4031419;-78
2023/09/22 07:47:40;;;;;;;4.05;1.60;;;;;;;23.68;71.97;96749.41;1221732;75;3044823;-79
2023/09/22 07:50:13;;;;;;;3.50;1.30;;;;;;;23.78;71.59;96744.56;1218767;75;3094620;-78
2023/09/22 07:52:46;;;;;;;5.35;1.50;;;;;;;24.39;68.77;96739.75;1218787;75;3071578;-81
2023/09/22 07:55:19;;;;;;;2.45;1.35;;;;;;;23.65;69.30;96742.94;1184696;75;4952697;-79
2023/09/22 07:57:52;;;;;;;3.30;1.50;;;;;;;23.75;68.97;96740.16;1150012;75;8911130;-78
2023/09/22 08:00:26;;;;;;;1.70;1.30;;;;;;;23.64;70.06;96737.94;1223879;75;2899843;-79
2023/09/22 08:03:03;;;;;;;3.00;1.30;;;;;;;24.33;68.65;96747.75;1172451;75;4812369;-80
2023/09/22 08:05:39;;;;;;;1.45;1.10;;;;;;;25.25;66.74;96737.22;1205477;75;3907947;-79
2023/09/22 08:08:13;;;;;;;2.50;1.10;;;;;;;25.17;66.75;96742.28;1210553;75;3816465;-82
2023/09/22 08:10:46;;;;;;;1.70;1.00;;;;;;;25.29;64.71;96743.84;1223174;75;2955671;-77
2023/09/22 08:13:21;;;;;;;1.70;1.20;;;;;;;24.91;66.61;96739.16;1136293;75;10013995;-80
2023/09/22 08:15:55;;;;;;;3.35;1.40;;;;;;;24.87;66.13;96742.44;1210105;75;3832978;-78
2023/09/22 08:18:37;;;;;;;5.90;1.80;;;;;;;24.22;68.13;96730.25;1225556;75;2918913;-81
2023/09/22 08:21:10;;;;;;;2.20;1.10;;;;;;;25.33;65.36;96726.56;1210937;75;3871576;-77
2023/09/22 08:23:43;;;;;;;3.30;1.45;;;;;;;24.98;65.11;96738.25;1225013;75;2921668;-79
2023/09/22 08:26:17;;;;;;;2.85;1.50;;;;;;;24.98;65.48;96731.91;1206564;75;4061726;-81
2023/09/22 08:28:50;;;;;;;3.25;1.20;;;;;;;25.53;63.07;96732.03;1211231;75;3911603;-78
2023/09/22 08:31:23;;;;;;;3.30;1.70;;;;;;;25.13;64.33;96730.78;1221727;75;2996760;-79
2023/09/22 08:33:58;;;;;;;2.95;1.65;;;;;;;26.74;60.03;96727.03;1198394;75;3982583;-79
2023/09/22 08:36:31;;;;;;;2.65;1.35;;;;;;;27.39;58.24;96723.81;1225136;75;2919842;-78
2023/09/22 08:39:04;;;;;;;2.00;1.20;;;;;;;27.85;56.61;96718.66;1221808;75;3064325;-79
2023/09/22 08:41:39;;;;;;;4.80;2.10;;;;;;;28.15;56.43;96711.19;1219201;75;3089169;-77
2023/09/22 08:44:12;;;;;;;4.20;1.40;;;;;;;28.12;55.35;96713.16;1206798;75;3947753;-80
2023/09/22 08:46:46;;;;;;;1.75;1.05;;;;;;;29.29;53.86;96717.16;1221848;75;2923851;-79
2023/09/22 08:49:21;;;;;;;1.70;1.10;;;;;;;29.38;53.43;96715.50;1222517;75;2959238;-81
2023/09/22 08:51:54;;;;;;;1.55;0.90;;;;;;;30.18;51.55;96710.84;1224776;75;2929253;-77
2023/09/22 08:54:28;;;;;;;1.75;1.20;;;;;;;30.28;50.86;96713.44;1198491;75;4003685;-77
2023/09/22 08:57:01;;;;;;;2.20;1.30;;;;;;;28.78;53.68;96714.56;1198911;75;3956862;-79
2023/09/22 08:59:33;;;;;;;2.55;1.20;;;;;;;27.55;56.43;96724.03;1225213;75;2924787;-78
2023/09/22 09:02:06;;;;;;;1.95;1.20;;;;;;;28.20;55.52;96721.31;1220646;75;3056738;-80
2023/09/22 09:04:42;;;;;;;3.80;1.55;;;;;;;28.66;55.00;96717.47;1198134;75;5004537;-77
2023/09/22 09:07:20;;;;;;;4.25;1.70;;;;;;;28.80;53.83;96725.94;1196344;75;3977307;-77
2023/09/22 09:09:59;;;;;;;4.20;1.70;;;;;;;28.54;54.47;96725.28;1222542;75;2995191;-79
2023/09/22 09:12:33;;;;;;;2.40;1.30;;;;;;;29.22;53.36;96728.78;1220170;75;3087809;-80
2023/09/22 09:15:06;;;;;;;2.30;1.30;;;;;;;30.39;51.97;96709.72;1207177;75;3927185;-79
2023/09/22 09:17:39;;;;;;;6.20;1.50;;;;;;;28.09;54.81;96717.19;1220346;75;2968803;-79
2023/09/22 09:20:15;;;;;;;3.25;1.20;;;;;;;29.86;52.08;96705.16;1223997;75;2933982;-80
2023/09/22 09:22:51;;;;;;;2.05;1.05;;;;;;;31.29;48.82;96693.16;1211119;75;3834812;-79
2023/09/22 09:25:24;;;;;;;4.00;1.60;;;;;;;29.38;53.22;96697.84;1219331;75;2992628;-80
2023/09/22 09:28:04;;;;;;;4.15;2.35;;;;;;;29.59;52.68;96691.84;1222206;75;2989695;-80
2023/09/22 09:30:37;;;;;;;3.15;1.35;;;;;;;28.69;54.35;96684.50;1223744;75;2928186;-79
2023/09/22 09:33:12;;;;;;;4.40;1.40;;;;;;;28.22;55.19;96679.22;1184849;75;4861877;-77
2023/09/22 09:35:47;;;;;;;4.15;1.45;;;;;;;27.85;56.30;96668.78;1224250;75;2924523;-78
2023/09/22 09:38:21;;;;;;;4.50;1.40;;;;;;;28.51;55.19;96669.50;1208388;75;4038165;-80
2023/09/22 09:40:55;;;;;;;3.10;1.05;;;;;;;27.86;58.05;96672.34;1224056;75;2920526;-79
2023/09/22 09:43:28;;;;;;;3.10;1.70;;;;;;;27.23;58.33;96684.28;1221750;75;2926320;-81
2023/09/22 09:46:01;;;;;;;6.50;1.70;;;;;;;26.83;59.63;96677.72;1207591;75;4108296;-78
2023/09/22 09:48:40;;;;;;;5.85;1.40;;;;;;;27.03;59.45;96671.81;1212218;75;3829940;-79
2023/09/22 09:51:20;;;;;;;2.30;1.40;;;;;;;27.13;59.34;96664.72;1220133;75;2971468;-78
2023/09/22 09:53:59;;;;;;;4.90;1.55;;;;;;;26.86;60.63;96662.44;1223830;75;2917308;-79
2023/09/22 09:56:33;;;;;;;4.40;1.60;;;;;;;26.40;62.43;96663.16;1218013;75;3085387;-80
2023/09/22 09:59:07;;;;;;;3.25;1.50;;;;;;;26.65;61.13;96652.09;1221554;75;2981158;-80
2023/09/22 10:01:41;;;;;;;3.15;1.50;;;;;;;26.19;62.86;96664.00;1088235;75;10819289;-79
2023/09/22 10:04:20;;;;;;;6.70;2.30;;;;;;;25.96;62.50;96654.22;1195483;75;3985809;-77
2023/09/22 10:06:56;;;;;;;6.10;1.30;;;;;;;26.08;59.31;96663.38;1223480;75;2935994;-78
2023/09/22 10:09:30;;;;;;;7.65;1.35;;;;;;;26.21;58.07;96661.31;1205996;75;4117293;-80
2023/09/22 10:12:04;;;;;;;3.60;1.05;;;;;;;26.44;57.76;96658.53;1223097;75;2929097;-79
2023/09/22 10:14:53;;;;;;;6.00;1.45;;;;;;;26.68;57.90;96658.56;1223505;75;2926226;-80
2023/09/22 10:17:26;;;;;;;5.75;1.50;;;;;;;27.95;54.67;96663.72;1208096;75;3994175;-80
2023/09/22 10:20:04;;;;;;;4.35;1.40;;;;;;;28.09;54.73;96657.38;1206065;75;4028342;-78
2023/09/22 10:22:39;;;;;;;4.80;1.60;;;;;;;27.77;53.86;96669.03;1195275;75;4968942;-80
2023/09/22 10:25:28;;;;;;;2.25;1.15;;;;;;;28.70;52.57;96679.63;1219441;75;3041734;-79
2023/09/22 10:28:04;;;;;;;4.15;1.35;;;;;;;28.28;53.52;96671.09;1217028;75;3108852;-81
2023/09/22 10:31:08;;;;;;;3.20;1.30;;;;;;;28.69;52.59;96681.69;1221610;75;2926273;-78
2023/09/22 10:33:42;;;;;;;4.90;1.35;;;;;;;29.14;51.85;96672.00;1220940;75;2965699;-81
2023/09/22 10:36:35;;;;;;;4.65;1.50;;;;;;;29.53;50.55;96675.34;1199315;75;3851392;-78
2023/09/22 10:39:11;;;;;;;2.85;1.20;;;;;;;28.37;52.64;96672.97;1194957;75;4036887;-79
2023/09/22 10:42:03;;;;;;;5.25;1.73;;;;;;;28.92;51.10;96665.94;1194013;75;4899877;-76
2023/09/22 10:44:59;;;;;;;5.10;1.75;;;;;;;27.22;54.31;96665.94;1196118;75;4952156;-82
2023/09/22 10:47:43;;;;;;;6.70;2.10;;;;;;;27.09;56.80;96663.75;1223167;75;2945899;-79
2023/09/22 10:50:18;;;;;;;4.70;1.65;;;;;;;26.63;59.21;96671.63;1208882;75;3847751;-79
2023/09/22 10:52:56;;;;;;;3.10;1.20;;;;;;;28.10;56.00;96662.41;1222864;75;2930043;-78
2023/09/22 10:55:35;;;;;;;4.90;1.60;;;;;;;28.54;55.06;96662.59;1223217;75;2919107;-81
2023/09/22 10:58:09;;;;;;;4.75;1.55;;;;;;;28.10;56.09;96658.88;1197920;75;4815354;-82
2023/09/22 11:00:45;;;;;;;5.15;1.55;;;;;;;28.46;55.04;96640.41;1179185;75;5068646;-80
2023/09/22 11:03:21;;;;;;;6.60;1.75;;;;;;;28.34;55.22;96651.72;1221214;75;3045101;-81
2023/09/22 11:06:03;;;;;;;8.65;1.70;;;;;;;26.86;57.54;96654.00;1219995;75;3035941;-80
2023/09/22 11:08:36;;;;;;;5.15;1.60;;;;;;;27.31;57.49;96650.28;1221566;75;3005373;-80
2023/09/22 11:11:11;;;;;;;5.75;1.70;;;;;;;26.85;59.02;96641.31;1221821;75;3007990;-82
2023/09/22 11:13:52;;;;;;;5.90;1.75;;;;;;;27.18;58.94;96649.56;1208901;75;3994296;-79
2023/09/22 11:16:27;;;;;;;6.80;1.60;;;;;;;27.25;58.95;96647.13;1206169;75;4005203;-78
2023/09/22 11:19:08;;;;;;;5.60;1.60;;;;;;;27.13;59.46;96645.06;1217104;75;3123664;-80
2023/09/22 11:21:46;;;;;;;7.30;2.15;;;;;;;26.68;61.12;96650.88;1223326;75;2926837;-82
2023/09/22 11:24:19;;;;;;;6.80;2.80;;;;;;;26.05;63.17;96652.63;1149019;75;6952595;-79
2023/09/22 11:26:54;;;;;;;6.00;1.80;;;;;;;26.86;62.40;96642.06;1222296;67;3002408;-81
2023/09/22 11:29:28;;;;;;;8.70;3.75;;;;;;;27.01;62.18;96635.91;1194584;75;4084653;-79
2023/09/22 11:32:02;;;;;;;6.20;2.50;;;;;;;26.64;62.58;96642.19;1209661;75;4022188;-77
2023/09/22 11:34:34;;;;;;;5.90;2.20;;;;;;;26.60;63.25;96636.34;1223867;75;2920031;-79
2023/09/22 11:37:07;;;;;;;8.30;2.90;;;;;;;26.51;62.54;96632.31;1221043;75;2993543;-80
2023/09/22 11:39:40;;;;;;;3.80;1.90;;;;;;;26.59;61.89;96631.34;1223391;75;2935622;-81
2023/09/22 11:42:23;;;;;;;4.95;2.05;;;;;;;27.30;61.17;96632.69;1208430;75;4009193;-82
2023/09/22 11:45:01;;;;;;;6.45;1.90;;;;;;;27.31;59.12;96633.41;1222331;75;2959483;-82